Time;durP1;ratioP1;P1;durP2;ratioP2;P2;SDS_P1;SDS_P2;PMS_P1;PMS_P2;Temp;Humidity;BMP_temperature;BMP_pressure;BME280_temperature;BME280_humidity;BME280_pressure;Samples;Min_cycle;Max_cycle;Signal;HPM_P1;HPM_P2
2022/10/16 00:00:42;;;;;;;7.07;2.28;;;;;;;11.61;92.78;100743.53;10480692;28;20044;-79
2022/10/16 00:05:44;;;;;;;3.55;1.75;;;;;;;11.59;92.56;100745.28;10471343;28;20043;-78
2022/10/16 00:10:46;;;;;;;5.80;1.92;;;;;;;11.46;92.49;100746.84;10496930;28;20040;-80
2022/10/16 00:15:47;;;;;;;4.65;1.75;;;;;;;11.43;92.48;100749.44;10507584;28;20115;-78
2022/10/16 00:20:49;;;;;;;5.85;1.65;;;;;;;11.41;92.52;100751.16;10504653;28;20044;-79
2022/10/16 00:25:59;;;;;;;9.93;1.77;;;;;;;11.40;92.49;100754.63;10501136;28;20102;-79
2022/10/16 00:31:06;;;;;;;4.38;1.48;;;;;;;11.27;92.36;100752.72;10497652;28;20550;-79
2022/10/16 00:36:12;;;;;;;4.53;1.92;;;;;;;11.27;92.47;100763.19;10504983;28;20044;-78
2022/10/16 00:41:16;;;;;;;5.25;1.83;;;;;;;11.27;92.45;100769.34;10499430;28;20098;-80
2022/10/16 00:46:38;;;;;;;7.95;1.98;;;;;;;11.24;92.46;100757.91;10483016;28;20508;-79
2022/10/16 00:51:45;;;;;;;6.30;1.80;;;;;;;11.20;92.42;100767.50;10503503;28;20040;-80
2022/10/16 00:56:47;;;;;;;4.32;2.70;;;;;;;11.16;92.31;100770.03;10492638;28;20051;-79
2022/10/16 01:01:48;;;;;;;4.90;1.95;;;;;;;11.08;92.30;100764.66;10498036;28;20048;-79
2022/10/16 01:07:11;;;;;;;6.85;1.75;;;;;;;11.04;92.44;100749.78;10505311;28;20049;-79
2022/10/16 01:12:28;;;;;;;10.35;2.33;;;;;;;10.98;92.63;100754.94;10501656;28;20448;-79
2022/10/16 01:17:50;;;;;;;9.63;2.13;;;;;;;10.91;92.63;100739.13;10485302;28;20075;-78
2022/10/16 01:23:10;;;;;;;5.93;1.60;;;;;;;10.91;92.82;100752.22;10496415;28;20058;-80
2022/10/16 01:28:14;;;;;;;12.05;2.17;;;;;;;10.88;92.89;100757.38;10495616;28;20807;-79
2022/10/16 01:33:21;;;;;;;9.75;1.60;;;;;;;10.87;92.95;100762.59;10482199;28;20384;-80
2022/10/16 01:38:29;;;;;;;7.85;2.33;;;;;;;10.92;92.93;100758.34;10502866;28;20036;-79
2022/10/16 01:43:36;;;;;;;4.63;1.95;;;;;;;10.92;93.01;100742.63;10500544;28;20126;-79
2022/10/16 01:48:39;;;;;;;2.75;1.40;;;;;;;10.97;92.98;100759.28;10482676;28;20041;-79
2022/10/16 01:53:46;;;;;;;4.30;1.67;;;;;;;10.99;93.00;100768.06;10476089;28;20634;-79
2022/10/16 01:59:12;;;;;;;7.07;1.70;;;;;;;11.04;93.03;100761.13;10493947;28;20082;-79
2022/10/16 02:04:16;;;;;;;7.20;2.15;;;;;;;11.14;92.90;100767.41;10468951;28;20037;-78
2022/10/16 02:09:18;;;;;;;5.45;1.67;;;;;;;11.20;92.68;100771.81;10499940;28;20101;-77
2022/10/16 02:14:21;;;;;;;3.88;1.50;;;;;;;11.26;92.44;100771.91;10486730;28;20059;-76
2022/10/16 02:19:23;;;;;;;3.60;1.40;;;;;;;11.27;92.50;100766.72;10472912;28;20495;-77
2022/10/16 02:24:58;;;;;;;7.10;1.50;;;;;;;11.35;92.21;100766.81;10494343;28;20032;-77
2022/10/16 02:30:11;;;;;;;5.72;1.77;;;;;;;11.45;91.79;100758.22;10476256;28;20136;-76
2022/10/16 02:35:18;;;;;;;7.90;1.70;;;;;;;11.50;91.54;100761.78;10497861;28;20048;-79
2022/10/16 02:40:20;;;;;;;4.28;1.40;;;;;;;11.49;91.33;100762.63;10482126;28;20039;-77
2022/10/16 02:45:25;;;;;;;5.80;1.60;;;;;;;11.47;91.12;100766.97;10484595;28;20047;-77
2022/10/16 02:50:27;;;;;;;5.88;1.50;;;;;;;11.44;90.83;100756.44;10491310;28;20043;-77
2022/10/16 02:55:29;;;;;;;4.80;1.40;;;;;;;11.35;90.79;100751.09;10505835;28;20098;-78
2022/10/16 03:00:30;;;;;;;4.30;1.33;;;;;;;11.33;90.89;100758.03;10483371;28;20051;-76
2022/10/16 03:05:32;;;;;;;2.22;1.13;;;;;;;11.33;90.96;100768.53;10478095;28;20048;-77
2022/10/16 03:10:34;;;;;;;6.22;1.52;;;;;;;11.31;90.94;100775.50;10504837;28;20044;-79
2022/10/16 03:15:36;;;;;;;6.72;1.30;;;;;;;11.29;90.90;100770.22;10483022;28;20440;-77
2022/10/16 03:20:38;;;;;;;4.80;1.60;;;;;;;11.28;90.87;100764.97;10483563;28;20036;-77
2022/10/16 03:25:40;;;;;;;5.55;1.85;;;;;;;11.23;90.90;100778.00;10509391;28;20549;-77
2022/10/16 03:30:43;;;;;;;6.00;1.70;;;;;;;11.23;91.05;100787.59;10505417;28;20052;-77
2022/10/16 03:35:51;;;;;;;3.80;1.88;;;;;;;11.25;91.12;100791.13;10489516;28;20040;-76
2022/10/16 03:40:54;;;;;;;4.70;1.63;;;;;;;11.27;91.33;100768.44;10497035;28;20070;-77
2022/10/16 03:45:56;;;;;;;6.07;2.30;;;;;;;11.33;91.51;100758.03;10500865;28;20048;-76
2022/10/16 03:50:58;;;;;;;6.10;2.17;;;;;;;11.37;91.65;100785.19;10509628;28;20044;-77
2022/10/16 03:56:00;;;;;;;7.63;2.50;;;;;;;11.44;91.74;100787.91;10489201;28;20324;-77
2022/10/16 04:01:02;;;;;;;8.25;3.03;;;;;;;11.44;91.79;100790.53;10484437;28;20047;-77
2022/10/16 04:06:04;;;;;;;10.63;3.10;;;;;;;11.50;91.98;100802.84;10475162;28;20040;-77
2022/10/16 04:11:05;;;;;;;7.63;3.28;;;;;;;11.56;91.88;100815.16;10498139;28;20038;-76
2022/10/16 04:16:07;;;;;;;12.73;3.45;;;;;;;11.60;92.17;100819.56;10506532;28;20048;-79
2022/10/16 04:21:08;;;;;;;7.60;3.58;;;;;;;11.55;92.27;100806.41;10508055;28;20058;-77
2022/10/16 04:26:10;;;;;;;9.38;3.92;;;;;;;11.63;92.44;100798.63;10505932;28;20044;-79
2022/10/16 04:31:12;;;;;;;12.15;4.38;;;;;;;11.61;92.57;100801.25;10490074;28;20835;-79
2022/10/16 04:36:14;;;;;;;10.50;4.40;;;;;;;11.62;92.61;100813.50;10505419;28;20047;-80
2022/10/16 04:41:15;;;;;;;8.75;4.07;;;;;;;11.67;92.78;100797.81;10504795;28;20060;-79
2022/10/16 04:46:17;;;;;;;8.93;4.50;;;;;;;11.62;92.81;100802.09;10485073;28;20078;-81
2022/10/16 04:51:19;;;;;;;11.38;4.22;;;;;;;11.57;92.93;100809.06;10498876;28;20044;-79
2022/10/16 04:56:21;;;;;;;9.80;4.57;;;;;;;11.59;93.16;100831.81;10468849;28;20055;-79
2022/10/16 05:01:23;;;;;;;8.45;4.43;;;;;;;11.59;93.28;100844.94;10496636;28;20036;-79
2022/10/16 05:06:25;;;;;;;8.90;3.92;;;;;;;11.55;93.39;100847.50;10485516;28;20063;-79
2022/10/16 05:11:27;;;;;;;17.30;5.32;;;;;;;11.63;93.51;100840.59;10491588;28;20638;-79
2022/10/16 05:16:30;;;;;;;10.30;4.75;;;;;;;11.65;93.46;100850.25;10502857;28;20059;-79
2022/10/16 05:21:32;;;;;;;16.85;5.18;;;;;;;11.69;93.79;100856.41;10501349;28;20072;-79
2022/10/16 05:26:33;;;;;;;12.80;5.40;;;;;;;11.68;93.75;100849.44;10496264;28;20097;-80
2022/10/16 05:31:36;;;;;;;11.23;5.55;;;;;;;11.70;93.82;100847.69;10481581;28;20040;-80
2022/10/16 05:36:38;;;;;;;11.88;5.45;;;;;;;11.69;93.85;100840.69;10485319;28;20044;-82
2022/10/16 05:41:40;;;;;;;11.77;5.05;;;;;;;11.75;94.06;100850.38;10504337;28;20062;-81
2022/10/16 05:46:42;;;;;;;12.85;5.55;;;;;;;11.78;94.02;100855.66;10500626;28;20055;-80
2022/10/16 05:51:44;;;;;;;11.00;5.38;;;;;;;11.70;93.94;100858.19;10485620;28;20041;-79
2022/10/16 05:56:46;;;;;;;13.80;5.80;;;;;;;11.66;94.11;100874.72;10482265;28;20048;-79
2022/10/16 06:01:48;;;;;;;12.88;5.38;;;;;;;11.67;94.21;100894.88;10503150;28;20047;-79
2022/10/16 06:06:50;;;;;;;11.25;5.43;;;;;;;11.64;94.27;100900.06;10499390;28;20055;-80
2022/10/16 06:11:51;;;;;;;12.02;5.70;;;;;;;11.68;94.26;100899.25;10484972;28;20048;-79
2022/10/16 06:16:53;;;;;;;11.07;4.70;;;;;;;11.62;94.35;100904.41;10513049;28;20044;-80
2022/10/16 06:21:55;;;;;;;9.77;5.05;;;;;;;11.58;94.33;100915.72;10471025;28;20105;-80
2022/10/16 06:26:56;;;;;;;15.65;5.40;;;;;;;11.62;94.50;100902.66;10508155;28;20044;-80
2022/10/16 06:31:58;;;;;;;9.75;4.93;;;;;;;11.58;94.50;100907.84;10473032;28;20040;-80
2022/10/16 06:37:00;;;;;;;11.65;4.82;;;;;;;11.59;94.54;100917.47;10448650;28;20140;-82
2022/10/16 06:42:02;;;;;;;14.32;5.28;;;;;;;11.66;94.99;100928.09;10470057;28;20097;-83
2022/10/16 06:47:10;;;;;;;10.27;4.90;;;;;;;11.73;94.78;100936.06;10477750;28;20103;-81
2022/10/16 06:52:11;;;;;;;11.00;5.00;;;;;;;11.80;94.55;100943.13;10466082;28;20516;-81
2022/10/16 06:57:13;;;;;;;10.27;4.63;;;;;;;11.87;94.58;100949.38;10482615;28;20044;-80
2022/10/16 07:02:14;;;;;;;11.93;4.63;;;;;;;11.89;94.42;100955.50;10482505;28;20571;-80
2022/10/16 07:07:16;;;;;;;10.43;4.50;;;;;;;11.88;94.64;100952.00;10475142;28;20067;-81
2022/10/16 07:12:18;;;;;;;8.75;4.32;;;;;;;11.98;94.30;100974.03;10476353;28;20040;-79
2022/10/16 07:17:20;;;;;;;9.18;3.97;;;;;;;12.11;94.23;100973.34;10487606;28;20700;-83
2022/10/16 07:22:22;;;;;;;10.82;3.47;;;;;;;12.28;94.09;100975.31;10479344;28;20047;-81
2022/10/16 07:27:24;;;;;;;9.63;3.70;;;;;;;12.48;93.85;100988.72;10485283;28;20048;-82
2022/10/16 07:32:26;;;;;;;8.60;3.58;;;;;;;12.62;93.34;100995.00;10489591;28;20800;-81
2022/10/16 07:37:28;;;;;;;8.48;3.55;;;;;;;13.04;92.97;101000.72;10483528;28;20068;-80
2022/10/16 07:42:30;;;;;;;10.30;3.40;;;;;;;13.11;92.08;101012.22;10494790;28;20039;-79
2022/10/16 07:47:32;;;;;;;5.55;2.42;;;;;;;13.44;91.50;101019.56;10480275;28;20040;-77
2022/10/16 07:52:34;;;;;;;7.78;3.13;;;;;;;14.21;90.39;101029.78;10443672;28;20041;-77
2022/10/16 07:57:35;;;;;;;6.82;2.83;;;;;;;16.38;87.66;101037.25;10456955;28;20098;-77
2022/10/16 08:02:37;;;;;;;5.15;2.30;;;;;;;16.71;83.34;101046.81;10476301;28;20040;-80
2022/10/16 08:07:39;;;;;;;5.38;2.20;;;;;;;16.00;81.72;101051.38;10473610;28;20051;-80
2022/10/16 08:12:40;;;;;;;6.57;2.10;;;;;;;15.27;81.24;101064.53;10485860;28;20036;-79
2022/10/16 08:17:43;;;;;;;4.20;1.70;;;;;;;14.81;81.70;101072.28;10483244;28;20043;-79
2022/10/16 08:22:44;;;;;;;3.47;1.90;;;;;;;14.46;82.73;101076.47;10466595;28;20442;-78
2022/10/16 08:27:46;;;;;;;3.88;1.83;;;;;;;14.54;83.15;101079.13;10461783;28;20099;-79
2022/10/16 08:32:47;;;;;;;6.78;1.70;;;;;;;14.39;83.37;101069.41;10465633;28;20105;-78
2022/10/16 08:37:49;;;;;;;3.60;1.52;;;;;;;15.33;83.23;101080.34;10491037;28;20036;-78
2022/10/16 08:43:28;;;;;;;3.83;1.67;;;;;;;15.97;81.80;101068.09;10492812;28;20389;-82
2022/10/16 08:48:45;;;;;;;3.63;1.40;;;;;;;15.95;80.44;101084.84;10478255;28;20044;-78
2022/10/16 08:53:57;;;;;;;8.82;1.70;;;;;;;15.77;79.92;101090.97;10489856;28;20090;-80
2022/10/16 08:59:00;;;;;;;4.35;1.60;;;;;;;15.18;80.12;101106.69;10457361;28;20136;-80
2022/10/16 09:04:15;;;;;;;5.03;1.60;;;;;;;14.78;80.91;101111.81;10494011;28;20044;-80
2022/10/16 09:09:32;;;;;;;2.60;1.30;;;;;;;14.61;81.67;101117.88;10496876;28;20068;-79
2022/10/16 09:14:45;;;;;;;3.92;1.55;;;;;;;14.72;82.54;101117.06;10489539;28;20045;-80
2022/10/16 09:20:09;;;;;;;3.72;1.23;;;;;;;14.89;82.03;101119.75;10467791;28;20522;-80
2022/10/16 09:25:17;;;;;;;5.40;1.42;;;;;;;15.63;81.63;101133.22;10488449;28;20500;-78
2022/10/16 09:30:21;;;;;;;4.13;1.40;;;;;;;15.89;80.35;101133.25;10452810;28;20477;-78
2022/10/16 09:35:32;;;;;;;4.22;1.40;;;;;;;16.38;79.64;101154.38;10473085;28;20048;-78
2022/10/16 09:40:41;;;;;;;4.00;1.10;;;;;;;16.37;78.23;101151.75;10456090;28;20052;-77
2022/10/16 09:45:43;;;;;;;;;;;;;;;16.69;78.04;101149.03;10434984;28;20049;-78
2022/10/16 09:50:56;;;;;;;2.35;1.00;;;;;;;16.91;76.89;101171.03;10436432;28;20360;-78
2022/10/16 09:55:57;;;;;;;5.10;1.00;;;;;;;17.09;76.12;101175.41;10469186;28;20608;-76
2022/10/16 10:00:59;;;;;;;3.25;1.20;;;;;;;17.16;75.72;101183.31;10483737;28;20051;-78
2022/10/16 10:06:16;;;;;;;4.68;1.25;;;;;;;17.45;75.35;101193.78;10477047;28;20032;-78
2022/10/16 10:11:18;;;;;;;4.43;0.98;;;;;;;16.93;74.87;101194.84;10444843;28;20123;-80
2022/10/16 10:16:26;;;;;;;3.75;0.90;;;;;;;16.86;74.83;101193.97;10435127;28;20067;-82
2022/10/16 10:21:27;;;;;;;2.47;1.00;;;;;;;16.55;74.18;101203.72;10474739;28;20105;-79
2022/10/16 10:26:32;;;;;;;1.88;0.68;;;;;;;16.34;74.62;101192.25;10496734;28;20504;-79
2022/10/16 10:32:08;;;;;;;6.22;0.82;;;;;;;16.53;74.25;101209.00;10466983;28;20045;-86
2022/10/16 10:37:34;;;;;;;5.82;1.08;;;;;;;16.92;73.07;101216.91;10477842;28;20048;-84
2022/10/16 10:43:11;;;;;;;4.60;0.90;;;;;;;17.38;72.45;101219.38;10457567;28;20055;-83
2022/10/16 10:48:13;;;;;;;4.93;0.90;;;;;;;17.47;71.56;101227.31;10465566;28;20048;-89
2022/10/16 10:53:36;;;;;;;9.85;1.00;;;;;;;17.66;70.88;101236.03;10469777;28;20036;-83
2022/10/16 10:58:53;;;;;;;3.45;1.00;;;;;;;17.89;70.42;101232.41;10460117;28;20040;-86
2022/10/16 11:04:27;;;;;;;1.48;0.63;;;;;;;18.11;69.48;101250.81;10455456;28;20037;-83
2022/10/16 11:09:36;;;;;;;3.70;0.82;;;;;;;18.16;68.59;101246.34;10483753;28;20214;-83
2022/10/16 11:14:49;;;;;;;3.92;0.90;;;;;;;18.23;67.65;101241.91;10484972;28;20040;-83
2022/10/16 11:20:18;;;;;;;5.63;0.88;;;;;;;17.61;66.69;101256.38;10482395;28;20519;-83
2022/10/16 11:25:27;;;;;;;4.20;1.27;;;;;;;17.78;66.76;101261.56;10480321;28;20060;-83
2022/10/16 11:30:31;;;;;;;3.40;0.95;;;;;;;17.85;65.92;101267.72;10470833;28;20040;-83
2022/10/16 11:35:43;;;;;;;3.63;1.00;;;;;;;18.07;66.14;101283.53;10486414;28;20052;-82
2022/10/16 11:40:49;;;;;;;7.57;1.45;;;;;;;18.23;65.66;101285.19;10473253;28;20051;-82
2022/10/16 11:45:54;;;;;;;2.78;0.90;;;;;;;18.45;65.33;101293.88;10463541;28;20055;-82
2022/10/16 11:51:05;;;;;;;6.75;0.90;;;;;;;18.02;64.94;101296.81;10450498;28;20243;-82
2022/10/16 11:56:07;;;;;;;12.75;1.05;;;;;;;18.29;64.99;101294.88;10454275;28;20068;-82
2022/10/16 12:01:09;;;;;;;6.15;0.80;;;;;;;18.09;64.58;101303.84;10479187;28;20065;-82
2022/10/16 12:06:38;;;;;;;6.15;1.98;;;;;;;17.39;64.24;101310.28;10475846;28;20282;-81
2022/10/16 12:11:40;;;;;;;9.27;1.27;;;;;;;17.17;63.59;101325.31;10467202;28;20048;-82
2022/10/16 12:16:59;;;;;;;6.97;1.40;;;;;;;16.83;63.54;101335.88;10475910;28;20052;-82
2022/10/16 12:22:03;;;;;;;4.63;0.75;;;;;;;16.59;64.05;101337.66;10471158;28;20037;-80
2022/10/16 12:27:21;;;;;;;6.03;1.00;;;;;;;17.20;63.71;101349.13;10485466;28;20041;-81
2022/10/16 12:32:36;;;;;;;3.75;0.68;;;;;;;17.61;62.56;101350.78;10450899;28;20129;-80
2022/10/16 12:37:54;;;;;;;;;;;;;;;17.83;61.96;101359.53;10490825;28;20048;-80
2022/10/16 12:42:55;;;;;;;5.65;1.13;;;;;;;17.96;61.09;101365.72;10471211;28;20597;-81
2022/10/16 12:47:58;;;;;;;5.35;1.02;;;;;;;17.85;60.61;101368.38;10492503;28;20040;-80
2022/10/16 12:53:01;;;;;;;9.38;1.02;;;;;;;17.94;60.86;101375.44;10483611;28;20056;-79
2022/10/16 12:58:35;;;;;;;5.45;1.25;;;;;;;18.14;60.24;101376.22;10470168;28;20500;-82
2022/10/16 13:04:12;;;;;;;3.15;1.00;;;;;;;18.16;59.97;101373.56;10471688;28;20050;-81
2022/10/16 13:09:19;;;;;;;5.95;0.88;;;;;;;18.22;59.76;101383.25;10461775;28;20102;-79
2022/10/16 13:14:39;;;;;;;4.57;0.90;;;;;;;18.25;59.61;101396.50;10462427;28;20040;-82
2022/10/16 13:19:44;;;;;;;;;;;;;;;18.27;59.77;101397.38;10470058;28;20287;-81
2022/10/16 13:25:22;;;;;;;6.78;0.95;;;;;;;18.17;59.88;101408.00;10462762;28;19994;-82
2022/10/16 13:30:28;;;;;;;4.65;0.90;;;;;;;17.48;59.50;101411.72;10395210;28;20052;-80
2022/10/16 13:35:34;;;;;;;8.85;1.20;;;;;;;16.91;60.47;101416.16;10478604;28;20038;-80
2022/10/16 13:40:36;;;;;;;6.65;1.25;;;;;;;16.70;61.69;101420.50;10445890;28;20052;-80
2022/10/16 13:45:38;;;;;;;8.18;1.25;;;;;;;16.84;62.32;101423.16;10488310;28;20598;-81
2022/10/16 13:50:40;;;;;;;5.25;1.20;;;;;;;16.91;62.85;101437.31;10474888;28;20055;-81
2022/10/16 13:55:42;;;;;;;6.85;1.25;;;;;;;16.79;63.28;101440.78;10466905;28;20033;-81
2022/10/16 14:00:54;;;;;;;9.00;1.17;;;;;;;16.94;63.48;101442.63;10475878;28;20052;-80
2022/10/16 14:06:00;;;;;;;5.47;1.30;;;;;;;16.97;64.03;101453.19;10460843;28;20127;-79
2022/10/16 14:11:02;;;;;;;6.43;1.10;;;;;;;16.85;64.17;101461.09;10465048;28;20036;-79
2022/10/16 14:16:08;;;;;;;6.40;1.20;;;;;;;16.78;64.17;101463.72;10455304;28;20098;-81
2022/10/16 14:21:15;;;;;;;9.93;1.30;;;;;;;16.58;64.19;101468.06;10452184;28;20778;-78
2022/10/16 14:26:20;;;;;;;5.20;1.00;;;;;;;16.53;64.49;101469.78;10460442;28;20044;-80
2022/10/16 14:31:27;;;;;;;5.35;0.90;;;;;;;16.48;63.97;101482.13;10462487;28;20045;-79
2022/10/16 14:36:30;;;;;;;5.13;1.10;;;;;;;16.44;63.57;101474.19;10459486;28;20040;-78
2022/10/16 14:41:40;;;;;;;4.78;1.10;;;;;;;16.43;64.06;101469.78;10499148;28;20048;-79
2022/10/16 14:46:43;;;;;;;4.47;0.93;;;;;;;16.46;63.59;101479.47;10466680;28;20134;-80
2022/10/16 14:51:46;;;;;;;8.20;1.20;;;;;;;16.28;63.82;101490.84;10471470;28;20055;-82
2022/10/16 14:56:51;;;;;;;4.38;0.90;;;;;;;16.19;64.75;101488.19;10484137;28;20036;-80
2022/10/16 15:01:53;;;;;;;4.40;1.45;;;;;;;16.15;65.12;101494.31;10481554;28;20079;-81
2022/10/16 15:06:54;;;;;;;11.38;1.60;;;;;;;16.12;65.35;101510.16;10483199;28;20056;-78
2022/10/16 15:11:56;;;;;;;9.82;1.50;;;;;;;16.08;65.75;101518.06;10483435;28;20048;-78
2022/10/16 15:16:58;;;;;;;7.55;1.20;;;;;;;16.06;66.35;101526.84;10487884;28;20478;-81
2022/10/16 15:22:00;;;;;;;6.35;0.77;;;;;;;15.89;66.96;101519.69;10466428;28;20052;-80
2022/10/16 15:27:02;;;;;;;3.42;0.93;;;;;;;15.77;67.63;101522.22;10475416;28;20032;-78
2022/10/16 15:32:04;;;;;;;4.90;1.10;;;;;;;15.62;68.37;101535.31;10461660;28;20532;-78
2022/10/16 15:37:05;;;;;;;6.90;1.40;;;;;;;15.52;68.87;101524.69;10498506;28;20045;-76
2022/10/16 15:42:07;;;;;;;7.00;1.40;;;;;;;15.36;69.04;101528.06;10481795;28;20040;-76
2022/10/16 15:47:09;;;;;;;6.18;0.82;;;;;;;15.26;69.17;101513.88;10506857;28;20278;-76
2022/10/16 15:52:11;;;;;;;8.15;1.35;;;;;;;15.13;69.58;101520.81;10504385;28;20054;-75
2022/10/16 15:57:12;;;;;;;6.82;1.50;;;;;;;14.97;70.15;101522.38;10501640;28;20526;-75
2022/10/16 16:02:14;;;;;;;9.13;2.10;;;;;;;14.82;70.48;101527.50;10502473;28;20044;-75
2022/10/16 16:07:16;;;;;;;6.50;1.40;;;;;;;14.64;71.17;101541.34;10497125;28;20499;-75
2022/10/16 16:12:17;;;;;;;8.85;2.35;;;;;;;14.49;71.91;101542.88;10499562;28;20040;-76
2022/10/16 16:17:19;;;;;;;5.47;1.50;;;;;;;14.29;72.68;101550.53;10504547;28;20047;-76
2022/10/16 16:22:20;;;;;;;8.88;1.80;;;;;;;14.08;73.84;101558.09;10500679;28;20044;-76
2022/10/16 16:27:24;;;;;;;4.55;1.38;;;;;;;13.82;74.64;101560.34;10504694;28;20074;-75
2022/10/16 16:32:27;;;;;;;7.03;1.48;;;;;;;13.56;76.08;101569.56;10500663;28;20117;-75
2022/10/16 16:37:29;;;;;;;8.52;1.80;;;;;;;13.36;76.83;101570.94;10482083;28;20044;-74
2022/10/16 16:42:31;;;;;;;9.80;1.73;;;;;;;13.15;77.83;101580.19;10498923;28;20039;-74
2022/10/16 16:47:32;;;;;;;9.23;1.98;;;;;;;12.94;78.69;101585.94;10489373;28;20036;-75
2022/10/16 16:52:35;;;;;;;5.70;1.95;;;;;;;12.74;79.47;101598.63;10505376;28;20101;-74
2022/10/16 16:57:36;;;;;;;9.30;2.03;;;;;;;12.56;80.24;101607.00;10465571;28;20043;-74
2022/10/16 17:02:42;;;;;;;8.60;2.90;;;;;;;12.36;80.63;101610.06;10477332;28;20101;-75
2022/10/16 17:07:44;;;;;;;10.32;3.10;;;;;;;12.20;81.31;101611.47;10496993;28;21144;-75
2022/10/16 17:12:46;;;;;;;7.70;3.22;;;;;;;12.07;81.94;101616.38;10500721;28;20094;-75
2022/10/16 17:17:48;;;;;;;7.53;2.53;;;;;;;11.97;82.41;101629.28;10471366;28;20060;-75
2022/10/16 17:22:50;;;;;;;13.05;4.03;;;;;;;11.85;82.94;101629.81;10495180;28;20041;-75
2022/10/16 17:27:52;;;;;;;13.25;4.22;;;;;;;11.71;83.59;101638.19;10428936;28;20040;-74
2022/10/16 17:32:54;;;;;;;19.40;5.65;;;;;;;11.62;83.98;101641.44;10469368;28;20059;-75
2022/10/16 17:37:55;;;;;;;10.23;5.03;;;;;;;11.52;84.51;101658.69;10493410;28;20044;-75
2022/10/16 17:42:57;;;;;;;14.15;5.30;;;;;;;11.43;84.89;101658.44;10500585;28;20048;-75
2022/10/16 17:47:58;;;;;;;15.15;6.88;;;;;;;11.34;85.18;101672.19;10494430;28;20101;-75
2022/10/16 17:53:02;;;;;;;15.60;6.45;;;;;;;11.18;85.61;101662.13;10499397;28;20188;-75
2022/10/16 17:58:04;;;;;;;16.88;5.85;;;;;;;11.10;85.98;101672.38;10477514;28;20136;-75
2022/10/16 18:03:06;;;;;;;11.82;5.75;;;;;;;11.08;86.30;101685.44;10497163;28;20044;-75
2022/10/16 18:08:08;;;;;;;21.42;6.68;;;;;;;11.04;86.61;101678.31;10501610;28;20040;-75
2022/10/16 18:13:09;;;;;;;17.95;7.30;;;;;;;11.00;86.81;101686.06;10508536;28;20048;-75
2022/10/16 18:18:11;;;;;;;17.58;8.20;;;;;;;10.91;87.17;101687.56;10511147;28;20109;-75
2022/10/16 18:23:13;;;;;;;17.92;8.57;;;;;;;10.82;86.97;101699.50;10489673;28;20071;-74
2022/10/16 18:28:15;;;;;;;16.17;7.60;;;;;;;10.76;87.56;101703.72;10496234;28;20048;-75
2022/10/16 18:33:16;;;;;;;17.90;8.95;;;;;;;10.70;87.61;101703.50;10511727;28;20040;-75
2022/10/16 18:38:19;;;;;;;28.05;9.35;;;;;;;10.58;87.83;101705.72;10502680;28;20041;-75
2022/10/16 18:43:20;;;;;;;20.35;8.38;;;;;;;10.50;88.08;101721.19;10491307;28;20036;-74
2022/10/16 18:48:22;;;;;;;23.88;8.80;;;;;;;10.44;88.54;101716.66;10511905;28;20052;-75
2022/10/16 18:53:24;;;;;;;22.27;7.68;;;;;;;10.41;88.71;101711.31;10508149;28;20044;-74
2022/10/16 18:58:26;;;;;;;21.50;6.00;;;;;;;10.39;88.86;101723.47;10498307;28;20044;-75
2022/10/16 19:03:27;;;;;;;17.27;6.18;;;;;;;10.39;89.15;101727.84;10511233;28;20045;-74
2022/10/16 19:08:31;;;;;;;13.18;5.47;;;;;;;10.39;89.33;101728.72;10506350;28;20051;-74
2022/10/16 19:13:33;;;;;;;15.10;5.70;;;;;;;10.36;89.26;101717.28;10506250;28;20078;-74
2022/10/16 19:18:37;;;;;;;13.77;5.00;;;;;;;10.31;89.47;101714.44;10508735;28;20519;-74
2022/10/16 19:23:39;;;;;;;19.00;6.68;;;;;;;10.32;89.46;101726.69;10504596;28;20080;-75
2022/10/16 19:28:42;;;;;;;24.92;8.95;;;;;;;10.30;89.75;101720.53;10489584;28;20044;-75
2022/10/16 19:33:44;;;;;;;21.15;8.60;;;;;;;10.27;90.04;101717.81;10492603;28;20097;-75
2022/10/16 19:38:46;;;;;;;21.73;8.32;;;;;;;10.27;90.01;101733.53;10504918;28;20570;-74
2022/10/16 19:43:48;;;;;;;21.52;8.68;;;;;;;10.20;90.35;101731.53;10467172;28;20127;-74
2022/10/16 19:48:59;;;;;;;24.77;9.82;;;;;;;10.13;90.29;101734.78;10483017;28;20048;-75
2022/10/16 19:54:04;;;;;;;29.27;8.15;;;;;;;10.11;90.45;101719.00;10508006;28;20069;-75
2022/10/16 19:59:11;;;;;;;23.48;8.30;;;;;;;10.13;90.32;101729.53;10485833;28;20041;-75
2022/10/16 20:04:13;;;;;;;22.77;8.70;;;;;;;10.15;90.63;101744.47;10504691;28;20530;-75
2022/10/16 20:09:14;;;;;;;17.52;7.45;;;;;;;10.17;90.64;101742.78;10493216;28;20175;-74
2022/10/16 20:14:16;;;;;;;26.88;9.57;;;;;;;10.17;90.75;101760.22;10499708;28;20051;-74
2022/10/16 20:19:18;;;;;;;27.48;9.75;;;;;;;10.15;90.76;101754.94;10489124;28;20400;-75
2022/10/16 20:24:20;;;;;;;19.80;7.75;;;;;;;10.18;90.76;101752.41;10486470;28;20043;-75
2022/10/16 20:29:21;;;;;;;21.48;8.38;;;;;;;10.20;90.84;101766.44;10506702;28;20427;-74
2022/10/16 20:34:23;;;;;;;23.63;8.63;;;;;;;10.22;91.04;101753.41;10503113;28;20756;-75
2022/10/16 20:39:25;;;;;;;27.52;12.93;;;;;;;10.23;91.31;101768.28;10505652;28;20056;-75
2022/10/16 20:44:27;;;;;;;20.45;7.68;;;;;;;10.18;91.38;101772.47;10468585;28;20056;-75
2022/10/16 20:49:29;;;;;;;19.95;8.40;;;;;;;10.18;91.45;101781.22;10481998;28;20165;-75
2022/10/16 20:54:43;;;;;;;22.45;7.97;;;;;;;10.19;91.53;101766.38;10502178;28;20036;-75
2022/10/16 20:59:45;;;;;;;17.45;5.97;;;;;;;10.23;91.56;101784.84;10503394;28;20097;-75
2022/10/16 21:04:47;;;;;;;15.88;6.93;;;;;;;10.25;91.58;101777.97;10491247;28;20044;-74
2022/10/16 21:09:49;;;;;;;15.02;5.75;;;;;;;10.31;91.85;101781.63;10466173;28;20044;-75
2022/10/16 21:14:50;;;;;;;18.25;7.07;;;;;;;10.31;91.88;101798.19;10494939;28;20160;-75
2022/10/16 21:20:12;;;;;;;18.30;6.25;;;;;;;10.35;91.96;101802.75;10501492;28;20128;-75
2022/10/16 21:25:14;;;;;;;17.58;6.05;;;;;;;10.35;91.82;101792.28;10497650;28;20036;-75
2022/10/16 21:30:16;;;;;;;10.38;3.85;;;;;;;10.40;91.92;101781.97;10500378;28;20042;-75
2022/10/16 21:35:17;;;;;;;14.52;2.85;;;;;;;10.43;91.99;101769.88;10497912;28;20041;-75
2022/10/16 21:40:19;;;;;;;8.45;2.97;;;;;;;10.46;91.88;101776.94;10496715;28;20110;-76
2022/10/16 21:45:21;;;;;;;9.20;2.90;;;;;;;10.52;92.00;101781.47;10492640;28;20089;-75
2022/10/16 21:50:23;;;;;;;12.13;2.85;;;;;;;10.55;91.93;101768.50;10481003;28;20064;-76
2022/10/16 21:55:24;;;;;;;8.32;3.20;;;;;;;10.61;91.92;101759.13;10483953;28;20857;-76
2022/10/16 22:00:26;;;;;;;6.57;3.08;;;;;;;10.65;92.01;101749.63;10504289;28;20036;-76
2022/10/16 22:05:28;;;;;;;12.75;2.92;;;;;;;10.69;91.89;101746.25;10501776;28;20113;-76
2022/10/16 22:10:30;;;;;;;5.20;2.75;;;;;;;10.73;92.10;101739.38;10485800;28;20851;-76
2022/10/16 22:15:32;;;;;;;10.35;3.20;;;;;;;10.74;91.87;101731.56;10476491;28;20024;-76
2022/10/16 22:20:34;;;;;;;8.55;3.30;;;;;;;10.78;92.08;101737.81;10496984;28;20048;-76
2022/10/16 22:25:36;;;;;;;10.43;3.08;;;;;;;10.78;92.31;101733.44;10499499;28;20036;-76
2022/10/16 22:30:39;;;;;;;10.10;2.80;;;;;;;10.80;92.47;101725.63;10501124;28;20043;-76
2022/10/16 22:35:41;;;;;;;15.07;3.42;;;;;;;10.79;92.46;101730.00;10498185;28;20040;-78
2022/10/16 22:40:43;;;;;;;10.52;4.13;;;;;;;10.81;92.79;101722.19;10483523;28;20123;-78
2022/10/16 22:45:45;;;;;;;10.13;4.45;;;;;;;10.84;92.80;101729.22;10486719;28;20048;-78
2022/10/16 22:50:47;;;;;;;13.30;4.55;;;;;;;10.81;93.00;101716.94;10467724;28;20109;-78
2022/10/16 22:55:49;;;;;;;11.25;4.38;;;;;;;10.82;92.87;101699.50;10505840;28;20044;-78
2022/10/16 23:00:51;;;;;;;11.55;3.88;;;;;;;10.84;93.01;101722.28;10484070;28;20048;-78
2022/10/16 23:05:53;;;;;;;9.85;3.55;;;;;;;10.82;93.07;101718.69;10492585;28;20028;-76
2022/10/16 23:10:59;;;;;;;10.45;3.60;;;;;;;10.85;93.41;101713.56;10491033;28;20094;-77
2022/10/16 23:16:04;;;;;;;18.50;4.22;;;;;;;10.87;93.27;101704.03;10486517;28;20708;-77